createdAt,value
2018-07-09T00:01:15.997Z,57.53
2018-07-09T00:03:45.382Z,57.51
2018-07-09T00:06:14.858Z,58.87
2018-07-09T00:08:44.235Z,58.37
2018-07-09T00:11:13.639Z,58.12
2018-07-09T00:13:43.012Z,59.18
2018-07-09T00:16:12.412Z,59.43
2018-07-09T00:18:41.751Z,58.72
2018-07-09T00:21:11.073Z,60.14
2018-07-09T00:23:40.386Z,59.98
2018-07-09T00:26:09.709Z,59.95
2018-07-09T00:28:39.239Z,60.71
2018-07-09T00:31:08.618Z,60.29
2018-07-09T00:33:37.987Z,60.54
2018-07-09T00:36:07.379Z,60.17
2018-07-09T00:38:36.828Z,60.89
2018-07-09T00:41:06.390Z,61.07
2018-07-09T00:43:35.815Z,60.85
2018-07-09T00:46:05.468Z,60.77
2018-07-09T00:48:34.857Z,60.65
2018-07-09T00:51:03.975Z,61.28
2018-07-09T00:53:33.463Z,61.41
2018-07-09T00:56:02.803Z,61.55
2018-07-09T00:58:32.125Z,61.42
2018-07-09T01:01:01.851Z,62.06
2018-07-09T01:03:37.866Z,62.94
2018-07-09T01:06:07.271Z,62.02
2018-07-09T01:08:36.674Z,62.43
2018-07-09T01:11:23.166Z,61.77
2018-07-09T01:13:52.553Z,62.37
2018-07-09T01:16:21.641Z,61.46
2018-07-09T01:18:50.963Z,62.10
2018-07-09T01:21:20.393Z,61.49
2018-07-09T01:23:49.798Z,60.77
2018-07-09T01:26:19.231Z,61.89
2018-07-09T01:28:48.711Z,62.13
2018-07-09T01:31:18.069Z,63.92
2018-07-09T01:33:47.440Z,63.82
2018-07-09T01:36:16.858Z,64.00
2018-07-09T01:38:46.210Z,62.95
2018-07-09T01:41:15.795Z,63.90
2018-07-09T01:43:45.304Z,64.12
2018-07-09T01:46:14.698Z,63.60
2018-07-09T01:48:44.095Z,64.94
2018-07-09T01:51:13.472Z,64.46
2018-07-09T01:53:42.908Z,64.60
2018-07-09T01:56:12.300Z,64.61
2018-07-09T01:58:41.907Z,64.82
2018-07-09T02:01:11.267Z,64.52
2018-07-09T02:03:40.600Z,64.59
2018-07-09T02:06:09.957Z,64.39
2018-07-09T02:08:39.623Z,65.00
2018-07-09T02:11:09.012Z,64.76
2018-07-09T02:13:38.416Z,64.99
2018-07-09T02:16:07.823Z,64.87
2018-07-09T02:18:37.264Z,65.04
2018-07-09T02:21:06.817Z,65.34
2018-07-09T02:23:36.246Z,65.42
2018-07-09T02:26:05.731Z,65.98
2018-07-09T02:28:35.182Z,65.38
2018-07-09T02:31:04.583Z,65.19
2018-07-09T02:33:34.288Z,65.72
2018-07-09T02:36:03.697Z,66.50
2018-07-09T02:38:33.122Z,65.89
2018-07-09T02:41:02.515Z,66.60
2018-07-09T02:43:31.911Z,66.84
2018-07-09T02:46:01.356Z,66.23
2018-07-09T02:48:30.894Z,66.36
2018-07-09T02:51:00.253Z,66.51
2018-07-09T02:53:29.722Z,66.52
2018-07-09T02:55:59.146Z,65.75
2018-07-09T02:58:28.641Z,66.76
2018-07-09T03:00:58.198Z,67.20
2018-07-09T03:03:27.586Z,67.58
2018-07-09T03:05:57.068Z,67.39
2018-07-09T03:08:26.497Z,67.46
2018-07-09T03:10:55.883Z,66.56
2018-07-09T03:13:25.262Z,66.08
2018-07-09T03:15:54.624Z,66.39
2018-07-09T03:18:24.062Z,66.86
2018-07-09T03:20:53.443Z,66.46
2018-07-09T03:23:22.826Z,66.28
2018-07-09T03:25:52.215Z,66.57
2018-07-09T03:28:21.594Z,66.68
2018-07-09T03:30:50.983Z,66.39
2018-07-09T03:33:20.386Z,65.33
2018-07-09T03:35:49.769Z,66.10
2018-07-09T03:38:19.240Z,66.13
2018-07-09T03:40:48.626Z,65.68
2018-07-09T03:43:17.990Z,66.05
2018-07-09T03:45:47.399Z,66.04
2018-07-09T03:48:16.766Z,65.76
2018-07-09T03:50:46.166Z,66.40
2018-07-09T03:53:15.598Z,64.84
2018-07-09T03:55:44.995Z,65.96
2018-07-09T03:58:14.431Z,65.63
2018-07-09T04:00:43.928Z,65.79
2018-07-09T04:03:13.355Z,65.81
2018-07-09T04:05:42.788Z,65.72
2018-07-09T04:08:12.131Z,65.36
2018-07-09T04:10:41.456Z,65.93
2018-07-09T04:13:10.795Z,66.07
2018-07-09T04:15:40.221Z,66.72
2018-07-09T04:18:09.571Z,67.00
2018-07-09T04:20:38.955Z,66.62
2018-07-09T04:23:08.306Z,67.37
2018-07-09T04:25:37.735Z,67.49
2018-07-09T04:28:07.079Z,66.70
2018-07-09T04:30:36.411Z,67.82
2018-07-09T04:33:05.823Z,66.90
2018-07-09T04:35:35.333Z,66.79
2018-07-09T04:38:04.704Z,66.64
2018-07-09T04:40:34.184Z,67.14
2018-07-09T04:43:03.577Z,67.32
2018-07-09T04:45:32.965Z,67.07
2018-07-09T04:48:02.302Z,67.36
2018-07-09T04:50:31.646Z,66.71
2018-07-09T04:53:01.018Z,66.36
2018-07-09T04:55:30.431Z,65.35
2018-07-09T04:58:00.218Z,66.24
2018-07-09T05:00:29.859Z,65.32
2018-07-09T05:02:59.478Z,65.08
2018-07-09T05:05:29.363Z,64.67
2018-07-09T05:08:00.258Z,65.20
2018-07-09T05:10:29.789Z,65.84
2018-07-09T05:12:59.350Z,65.12
2018-07-09T05:15:28.890Z,65.55
2018-07-09T05:17:58.425Z,62.30
2018-07-09T05:20:28.013Z,65.92
2018-07-09T05:22:57.653Z,63.88
2018-07-09T05:25:27.123Z,64.59
2018-07-09T05:27:56.545Z,64.09
2018-07-09T05:30:26.029Z,63.36
2018-07-09T05:32:55.445Z,62.54
2018-07-09T05:35:24.887Z,62.76
2018-07-09T05:37:54.489Z,64.74
2018-07-09T05:40:23.961Z,65.75
2018-07-09T05:42:53.434Z,66.38
2018-07-09T05:45:23.073Z,64.95
2018-07-09T05:47:52.569Z,64.20
2018-07-09T05:50:21.978Z,64.57
2018-07-09T05:52:51.478Z,65.13
2018-07-09T05:55:21.284Z,63.14
2018-07-09T05:57:50.684Z,64.07
2018-07-09T06:00:20.057Z,64.13
2018-07-09T06:02:49.437Z,63.64
2018-07-09T06:05:18.921Z,62.24
2018-07-09T06:07:48.308Z,63.47
2018-07-09T06:10:18.679Z,61.01
2018-07-09T06:12:48.225Z,60.71
2018-07-09T06:15:17.656Z,60.86
2018-07-09T06:17:47.115Z,62.65
2018-07-09T06:20:16.539Z,59.15
2018-07-09T06:22:45.967Z,60.26
2018-07-09T06:25:15.369Z,60.68
2018-07-09T06:27:44.775Z,60.45
2018-07-09T06:30:14.164Z,57.92
2018-07-09T06:32:43.794Z,57.52
2018-07-09T06:35:13.185Z,58.81
2018-07-09T06:37:42.574Z,60.90
2018-07-09T06:40:12.075Z,60.00
2018-07-09T06:42:41.580Z,59.83
2018-07-09T06:45:11.100Z,59.54
2018-07-09T06:47:40.508Z,58.12
2018-07-09T06:50:10.030Z,58.17
2018-07-09T06:52:39.489Z,59.93
2018-07-09T06:55:09.475Z,58.45
2018-07-09T06:57:38.929Z,57.10
2018-07-09T07:00:08.343Z,56.48
2018-07-09T07:02:37.906Z,58.10
2018-07-09T07:05:07.342Z,58.33
2018-07-09T07:07:36.869Z,55.37
2018-07-09T07:10:06.493Z,55.51
2018-07-09T07:12:35.944Z,55.25
2018-07-09T07:15:05.905Z,55.50
2018-07-09T07:17:35.274Z,55.64
2018-07-09T07:20:04.695Z,55.27
2018-07-09T07:22:34.276Z,55.54
2018-07-09T07:25:04.011Z,55.71
2018-07-09T07:27:33.451Z,55.36
2018-07-09T07:30:03.030Z,56.86
2018-07-09T07:32:32.466Z,57.12
2018-07-09T07:35:01.940Z,55.90
2018-07-09T07:37:31.817Z,55.44
2018-07-09T07:40:01.537Z,55.47
2018-07-09T07:42:31.244Z,55.38
2018-07-09T07:45:00.886Z,53.89
2018-07-09T07:47:30.627Z,54.16
2018-07-09T07:50:00.201Z,51.70
2018-07-09T07:52:29.696Z,52.47
2018-07-09T07:54:59.265Z,54.06
2018-07-09T07:57:29.072Z,52.39
2018-07-09T07:59:58.723Z,52.72
2018-07-09T08:02:28.798Z,53.09
2018-07-09T08:04:58.349Z,54.21
2018-07-09T08:07:27.963Z,54.11
2018-07-09T08:09:57.555Z,53.91
2018-07-09T08:14:57.066Z,53.77
2018-07-09T08:17:26.722Z,52.02
2018-07-09T08:19:56.238Z,49.77
2018-07-09T08:22:26.038Z,48.36
2018-07-09T08:24:55.733Z,46.74
2018-07-09T08:27:25.071Z,49.02
2018-07-09T08:29:54.634Z,48.57
2018-07-09T08:32:24.183Z,48.59
2018-07-09T08:34:54.038Z,47.03
2018-07-09T08:37:23.445Z,47.59
2018-07-09T08:39:52.956Z,46.52
2018-07-09T08:42:22.400Z,45.78
2018-07-09T08:44:51.910Z,47.02
2018-07-09T08:47:21.387Z,47.66
2018-07-09T08:49:50.822Z,46.67
2018-07-09T08:52:20.198Z,48.05
2018-07-09T08:54:50.572Z,47.40
2018-07-09T08:57:19.926Z,47.61
2018-07-09T08:59:49.384Z,47.13
2018-07-09T09:02:18.854Z,47.92
2018-07-09T09:04:48.291Z,48.23
2018-07-09T09:07:18.595Z,47.44
2018-07-09T09:09:48.049Z,48.55
2018-07-09T09:12:17.455Z,50.08
2018-07-09T09:14:46.934Z,47.16
2018-07-09T09:17:16.371Z,44.44
2018-07-09T09:19:45.771Z,48.03
2018-07-09T09:22:15.262Z,46.73
2018-07-09T09:24:44.767Z,47.51
2018-07-09T09:27:14.243Z,46.28
2018-07-09T09:29:43.708Z,45.09
2018-07-09T09:32:13.196Z,46.17
2018-07-09T09:34:42.710Z,46.62
2018-07-09T09:37:12.134Z,46.81
2018-07-09T09:39:41.569Z,48.50
2018-07-09T09:42:11.022Z,47.94
2018-07-09T09:44:40.389Z,48.55
2018-07-09T09:47:09.638Z,48.61
2018-07-09T09:49:39.070Z,48.80
2018-07-09T09:52:08.519Z,47.59
2018-07-09T09:54:37.952Z,46.44
2018-07-09T09:57:07.963Z,42.69
2018-07-09T09:59:37.400Z,43.90
2018-07-09T10:02:06.947Z,46.08
2018-07-09T10:04:36.338Z,48.46
2018-07-09T10:07:05.810Z,46.46
2018-07-09T10:09:35.282Z,45.08
2018-07-09T10:12:04.727Z,42.78
2018-07-09T10:14:34.172Z,46.40
2018-07-09T10:17:03.591Z,46.98
2018-07-09T10:19:33.093Z,46.17
2018-07-09T10:22:02.573Z,43.74
2018-07-09T10:24:31.979Z,44.30
2018-07-09T10:27:01.400Z,40.60
2018-07-09T10:29:30.945Z,42.75
2018-07-09T10:32:00.436Z,44.80
2018-07-09T10:34:30.020Z,42.81
2018-07-09T10:36:59.512Z,42.75
2018-07-09T10:39:29.052Z,42.24
2018-07-09T10:41:58.445Z,41.35
2018-07-09T10:44:27.844Z,41.05
2018-07-09T10:46:57.382Z,43.08
2018-07-09T10:49:26.887Z,42.12
2018-07-09T10:51:56.341Z,41.77
2018-07-09T10:54:25.806Z,43.72
2018-07-09T10:56:55.350Z,43.42
2018-07-09T10:59:24.890Z,42.11
2018-07-09T11:01:54.293Z,40.66
2018-07-09T11:04:23.792Z,39.70
2018-07-09T11:06:53.493Z,42.83
2018-07-09T11:09:22.900Z,42.38
2018-07-09T11:11:52.375Z,40.87
2018-07-09T11:14:21.537Z,42.04
2018-07-09T11:16:50.938Z,43.64
2018-07-09T11:19:20.566Z,41.49
2018-07-09T11:21:50.016Z,43.75
2018-07-09T11:24:19.512Z,44.25
2018-07-09T11:26:48.907Z,45.94
2018-07-09T11:29:18.291Z,44.74
2018-07-09T11:31:47.741Z,44.64
2018-07-09T11:34:17.143Z,44.80
2018-07-09T11:36:46.625Z,44.19
2018-07-09T11:39:16.135Z,44.26
2018-07-09T11:41:45.572Z,46.43
2018-07-09T11:44:15.041Z,43.72
2018-07-09T11:46:44.558Z,42.69
2018-07-09T11:49:14.138Z,42.36
2018-07-09T11:51:43.569Z,44.79
2018-07-09T11:54:13.013Z,44.27
2018-07-09T11:56:42.858Z,39.26
2018-07-09T11:59:12.209Z,41.38
2018-07-09T12:01:42.023Z,42.24
2018-07-09T12:04:11.494Z,42.00
2018-07-09T12:06:40.927Z,41.46
2018-07-09T12:09:10.475Z,38.55
2018-07-09T12:11:39.823Z,41.80
2018-07-09T12:14:09.229Z,42.37
2018-07-09T12:16:38.732Z,42.00
2018-07-09T12:19:08.199Z,42.45
2018-07-09T12:21:37.654Z,42.56
2018-07-09T12:24:07.105Z,45.11
2018-07-09T12:26:36.519Z,42.74
2018-07-09T12:29:05.978Z,44.13
2018-07-09T12:31:35.633Z,42.00
2018-07-09T12:34:05.032Z,43.83
2018-07-09T12:36:34.609Z,42.24
2018-07-09T12:39:05.304Z,43.12
2018-07-09T12:41:35.584Z,43.62
2018-07-09T12:44:05.092Z,45.16
2018-07-09T12:46:34.519Z,43.27
2018-07-09T12:49:04.146Z,43.13
2018-07-09T12:51:33.629Z,42.43
2018-07-09T12:54:03.042Z,43.35
2018-07-09T12:56:32.865Z,46.16
2018-07-09T12:59:02.663Z,40.51
2018-07-09T13:01:32.195Z,41.39
2018-07-09T13:04:01.636Z,42.88
2018-07-09T13:06:31.127Z,44.83
2018-07-09T13:09:00.599Z,40.92
2018-07-09T13:11:33.109Z,43.35
2018-07-09T13:14:02.658Z,41.95
2018-07-09T13:16:32.084Z,43.85
2018-07-09T13:19:01.488Z,43.75
2018-07-09T13:21:30.893Z,43.57
2018-07-09T13:24:00.537Z,42.22
2018-07-09T13:26:30.041Z,42.74
2018-07-09T13:28:59.793Z,43.33
2018-07-09T13:31:30.024Z,44.31
2018-07-09T13:33:59.547Z,43.12
2018-07-09T13:36:29.237Z,43.22
2018-07-09T13:38:58.840Z,43.30
2018-07-09T13:41:28.711Z,41.13
2018-07-09T13:43:58.463Z,42.34
2018-07-09T13:46:28.065Z,42.25
2018-07-09T13:48:57.794Z,45.83
2018-07-09T13:51:32.038Z,41.60
2018-07-09T13:54:01.573Z,40.90
2018-07-09T13:56:31.114Z,40.97
2018-07-09T13:59:00.625Z,42.52
2018-07-09T14:01:30.283Z,39.55
2018-07-09T14:03:59.745Z,42.44
2018-07-09T14:06:29.342Z,44.67
2018-07-09T14:08:59.008Z,41.71
2018-07-09T14:11:28.534Z,41.57
2018-07-09T14:13:58.026Z,39.94
2018-07-09T14:16:27.682Z,40.70
2018-07-09T14:18:57.161Z,41.48
2018-07-09T14:21:26.852Z,40.14
2018-07-09T14:23:56.074Z,40.52
2018-07-09T14:26:26.301Z,39.48
2018-07-09T14:28:56.119Z,40.78
2018-07-09T14:31:25.775Z,40.94
2018-07-09T14:33:55.373Z,43.35
2018-07-09T14:36:24.541Z,40.63
2018-07-09T14:38:54.048Z,40.17
2018-07-09T14:41:23.481Z,42.36
2018-07-09T14:43:52.919Z,39.42
2018-07-09T14:46:22.350Z,40.35
2018-07-09T14:48:51.768Z,41.42
2018-07-09T14:51:21.146Z,39.62
2018-07-09T14:53:50.678Z,39.70
2018-07-09T14:56:20.169Z,39.34
2018-07-09T14:58:49.630Z,38.92
2018-07-09T15:01:19.100Z,38.59
2018-07-09T15:03:48.491Z,38.85
2018-07-09T15:06:17.897Z,38.78
2018-07-09T15:08:47.329Z,37.36
2018-07-09T15:11:16.816Z,38.80
2018-07-09T15:13:46.231Z,39.88
2018-07-09T15:16:15.686Z,39.15
2018-07-09T15:18:45.185Z,40.60
2018-07-09T15:21:14.630Z,38.72
2018-07-09T15:23:44.051Z,39.00
2018-07-09T15:26:13.533Z,40.82
2018-07-09T15:28:43.073Z,41.20
2018-07-09T15:31:12.764Z,42.75
2018-07-09T15:33:42.155Z,41.87
2018-07-09T15:36:11.564Z,43.76
2018-07-09T15:38:41.049Z,40.47
2018-07-09T15:41:10.523Z,41.52
2018-07-09T15:43:58.733Z,40.72
2018-07-09T15:46:28.282Z,40.86
2018-07-09T15:49:00.927Z,40.26
2018-07-09T15:51:30.401Z,41.04
2018-07-09T15:53:59.942Z,41.10
2018-07-09T15:56:29.734Z,39.51
2018-07-09T15:58:59.780Z,39.35
2018-07-09T16:01:29.910Z,40.27
2018-07-09T16:03:59.524Z,39.98
2018-07-09T16:06:29.032Z,41.25
2018-07-09T16:08:58.578Z,39.74
2018-07-09T16:11:28.051Z,39.92
2018-07-09T16:14:03.758Z,39.43
2018-07-09T16:16:33.373Z,38.49
2018-07-09T16:19:02.822Z,40.28
2018-07-09T16:21:32.280Z,40.82
2018-07-09T16:24:01.944Z,41.18
2018-07-09T16:26:32.055Z,40.74
2018-07-09T16:29:01.529Z,42.23
2018-07-09T16:31:30.964Z,41.09
2018-07-09T16:34:00.450Z,42.27
2018-07-09T16:36:29.972Z,41.33
2018-07-09T16:38:59.470Z,41.47
2018-07-09T16:41:29.009Z,40.46
2018-07-09T16:43:58.699Z,41.05
2018-07-09T16:46:28.275Z,41.19
2018-07-09T16:48:57.890Z,42.06
2018-07-09T16:51:27.400Z,41.01
2018-07-09T16:53:56.987Z,40.47
2018-07-09T16:56:26.582Z,41.18
2018-07-09T16:58:56.018Z,39.82
2018-07-09T17:01:25.990Z,40.18
2018-07-09T17:03:55.814Z,40.54
2018-07-09T17:06:25.264Z,39.47
2018-07-09T17:08:54.712Z,39.95
2018-07-09T17:11:24.244Z,40.48
2018-07-09T17:13:53.932Z,41.24
2018-07-09T17:16:23.359Z,40.76
2018-07-09T17:18:53.063Z,42.95
2018-07-09T17:21:22.565Z,43.06
2018-07-09T17:23:52.074Z,42.69
2018-07-09T17:26:21.620Z,41.46
2018-07-09T17:28:50.968Z,42.82
2018-07-09T17:31:20.364Z,41.56
2018-07-09T17:33:49.776Z,41.58
2018-07-09T17:36:19.581Z,42.53
2018-07-09T17:38:48.816Z,42.88
2018-07-09T17:41:18.187Z,42.26
2018-07-09T17:43:47.751Z,42.39
2018-07-09T17:46:16.866Z,41.65
2018-07-09T17:48:46.265Z,42.93
2018-07-09T17:51:15.462Z,44.48
2018-07-09T17:53:44.931Z,44.55
2018-07-09T17:56:14.356Z,44.78
2018-07-09T17:58:43.861Z,43.84
2018-07-09T18:01:13.250Z,45.49
2018-07-09T18:03:43.122Z,45.49
2018-07-09T18:06:12.523Z,46.54
2018-07-09T18:08:41.916Z,46.44
2018-07-09T18:11:11.337Z,46.99
2018-07-09T18:13:40.621Z,46.20
2018-07-09T18:16:10.258Z,46.55
2018-07-09T18:18:39.754Z,47.38
2018-07-09T18:21:09.191Z,47.73
2018-07-09T18:23:38.857Z,48.74
2018-07-09T18:26:08.296Z,47.62
2018-07-09T18:28:37.663Z,46.99
2018-07-09T18:31:07.140Z,48.13
2018-07-09T18:33:36.563Z,47.84
2018-07-09T18:36:06.628Z,48.39
2018-07-09T18:38:36.090Z,48.12
2018-07-09T18:41:05.525Z,49.03
2018-07-09T18:43:35.037Z,49.59
2018-07-09T18:46:04.473Z,51.61
2018-07-09T18:48:33.893Z,50.65
2018-07-09T18:51:03.374Z,49.97
2018-07-09T18:53:32.879Z,50.87
2018-07-09T18:56:02.382Z,52.07
2018-07-09T18:58:32.025Z,51.11
2018-07-09T19:01:01.801Z,51.70
2018-07-09T19:03:31.545Z,52.53
2018-07-09T19:07:20.990Z,51.53
2018-07-09T19:09:52.026Z,52.06
2018-07-09T19:12:21.219Z,52.19
2018-07-09T19:14:51.337Z,52.22
2018-07-09T19:18:04.895Z,54.71
2018-07-09T19:21:24.703Z,54.11
2018-07-09T19:23:53.154Z,55.61
2018-07-09T19:26:21.109Z,55.53
2018-07-09T19:28:48.961Z,56.02
2018-07-09T19:31:17.366Z,57.57
2018-07-09T19:33:45.117Z,57.59
2018-07-09T19:36:12.879Z,56.39
2018-07-09T19:38:40.926Z,55.39
2018-07-09T19:41:09.014Z,55.80
2018-07-09T19:43:37.343Z,56.27
2018-07-09T19:46:05.228Z,56.00
2018-07-09T19:48:32.918Z,55.75
2018-07-09T19:51:00.698Z,56.52
2018-07-09T19:53:28.437Z,55.75
2018-07-09T19:55:56.522Z,55.60
2018-07-09T19:58:24.358Z,55.12
2018-07-09T20:00:52.128Z,56.05
2018-07-09T20:03:19.935Z,56.66
2018-07-09T20:05:47.657Z,57.54
2018-07-09T20:08:15.510Z,57.53
2018-07-09T20:10:48.599Z,57.19
2018-07-09T20:13:22.000Z,58.25
2018-07-09T20:15:54.993Z,58.28
2018-07-09T20:18:22.852Z,58.86
2018-07-09T20:20:50.636Z,58.56
2018-07-09T20:23:18.430Z,58.97
2018-07-09T20:25:46.217Z,58.59
2018-07-09T20:28:13.959Z,58.22
2018-07-09T20:30:41.737Z,58.33
2018-07-09T20:33:09.517Z,58.63
2018-07-09T20:35:38.166Z,59.49
2018-07-09T20:38:05.942Z,58.84
2018-07-09T20:40:33.710Z,58.48
2018-07-09T20:43:01.474Z,60.13
2018-07-09T20:45:29.342Z,59.77
2018-07-09T20:47:57.397Z,59.98
2018-07-09T20:50:25.212Z,54.53
2018-07-09T20:52:53.007Z,54.84
2018-07-09T20:55:20.780Z,55.16
2018-07-09T20:57:48.616Z,54.40
2018-07-09T21:00:16.396Z,55.55
2018-07-09T21:02:44.212Z,56.05
2018-07-09T21:05:12.277Z,54.23
2018-07-09T21:07:40.061Z,54.03
2018-07-09T21:10:07.842Z,55.06
2018-07-09T21:12:39.675Z,54.43
2018-07-09T21:15:07.486Z,52.72
2018-07-09T21:17:35.250Z,53.90
2018-07-09T21:20:03.016Z,53.49
2018-07-09T21:22:30.770Z,53.41
2018-07-09T21:24:58.749Z,54.27
2018-07-09T21:27:26.510Z,55.53
2018-07-09T21:29:54.253Z,53.06
2018-07-09T21:32:22.115Z,53.02
2018-07-09T21:34:49.882Z,52.44
2018-07-09T21:37:17.684Z,53.25
2018-07-09T21:39:45.509Z,54.42
2018-07-09T21:42:13.294Z,55.05
2018-07-09T21:44:41.127Z,56.95
2018-07-09T21:47:08.898Z,57.16
2018-07-09T21:49:36.918Z,56.48
2018-07-09T21:52:05.068Z,57.50
2018-07-09T21:54:32.882Z,58.23
2018-07-09T21:57:00.725Z,58.67
2018-07-09T21:59:28.580Z,58.38
2018-07-09T22:01:56.555Z,58.87
2018-07-09T22:04:24.322Z,58.60
2018-07-09T22:06:52.097Z,58.12
2018-07-09T22:09:20.187Z,57.72
2018-07-09T22:11:48.008Z,58.80
2018-07-09T22:14:15.766Z,58.78
2018-07-09T22:16:43.574Z,59.36
2018-07-09T22:19:11.357Z,59.60
2018-07-09T22:21:39.159Z,59.45
2018-07-09T22:24:06.923Z,59.56
2018-07-09T22:26:34.686Z,60.59
2018-07-09T22:29:02.435Z,59.74
2018-07-09T22:31:31.618Z,59.46
2018-07-09T22:34:01.046Z,58.61
2018-07-09T22:36:31.462Z,60.26
2018-07-09T22:39:01.047Z,58.05
2018-07-09T22:41:30.509Z,58.83
2018-07-09T22:44:23.471Z,59.55
2018-07-09T22:46:53.192Z,60.08
2018-07-09T22:49:22.629Z,59.56
2018-07-09T22:51:52.124Z,58.61
2018-07-09T22:54:21.610Z,60.01
2018-07-09T22:56:51.097Z,59.17
2018-07-09T22:59:20.866Z,57.04
2018-07-09T23:01:50.258Z,57.69
2018-07-09T23:04:19.658Z,57.94
2018-07-09T23:06:49.082Z,59.60
2018-07-09T23:13:47.438Z,58.13
2018-07-09T23:16:59.986Z,60.25
2018-07-09T23:22:24.765Z,59.18
2018-07-09T23:24:52.525Z,57.24
2018-07-09T23:27:20.352Z,58.39
2018-07-09T23:29:48.089Z,57.31
2018-07-09T23:32:15.829Z,57.08
2018-07-09T23:34:43.639Z,58.22
2018-07-09T23:37:11.418Z,57.94
2018-07-09T23:39:39.207Z,58.01
2018-07-09T23:42:06.958Z,57.57
2018-07-09T23:44:34.898Z,57.96
2018-07-09T23:47:02.703Z,57.94
2018-07-09T23:49:30.446Z,56.84
2018-07-09T23:51:58.418Z,57.70
2018-07-09T23:54:26.210Z,57.99
2018-07-09T23:57:10.747Z,59.09
2018-07-09T23:59:57.112Z,58.28
